Latest Weather Observations for Richmond

IDN60901

Issued at 4:51 pm EST Thursday 30 June 2016 (issued every 10 minutes, with the page automatically refreshed every 10 minutes)

About weather observations | Map of Sydney area stations | Latest observations for Sydney area | Other Formats
Station Details ID: 067105 Name: RICHMOND RAAF Lat: -33.60 Lon: 150.78 Height: 19.0 m
Data from the previous 72 hours. | See also: Recent months at Richmond
Date/Time
EST
Temp
°C
App
Temp
°C
Dew
Point
°C
Rel
Hum
%
Delta-T
°C
Wind Press
QNH
hPa
Press
MSL
hPa
Rain since
9am
mm
Dir  Spd
km/h
Gust
km/h
Spd
kts
Gust
kts
30/04:30pm 13.9 11.4 4.8 54 4.2 W 7 9 4 5 1015.0 1015.0 0.0
30/04:00pm 13.3 10.0 2.5 48 4.7 NNW 9 13 5 7 1014.8 1014.8 0.0
30/03:30pm 14.4 9.7 0.6 39 5.9 N 15 20 8 11 1014.7 1014.7 0.0
30/03:00pm 14.5 9.0 0.7 39 5.9 NNE 19 28 10 15 1014.9 1014.9 0.0
30/02:30pm 14.6 9.6 1.2 40 5.8 N 17 24 9 13 1015.1 1015.1 0.0
30/02:00pm 14.9 9.8 0.7 38 6.1 N 17 24 9 13 1015.5 1015.5 0.0
30/01:30pm 14.6 8.5 0.5 38 6.0 NNE 22 30 12 16 1015.8 1015.8 0.0
30/01:00pm 14.7 8.2 0.5 38 6.0 NNE 24 32 13 17 1016.5 1016.5 0.0
30/12:30pm 14.5 9.1 1.4 41 5.7 N 19 28 10 15 1017.4 1017.4 0.0
30/12:00pm 12.4 11.0 5.6 63 3.2 NNW 2 7 1 4 1018.1 1018.1 0.0
30/11:30am 10.7 9.4 6.1 73 2.1 SW 2 7 1 4 1018.8 1018.8 0.0
30/11:00am 10.0 8.6 5.4 73 2.1 NW 2 6 1 3 1019.6 1019.6 0.0
30/10:30am 9.4 7.9 5.2 75 1.9 N 2 6 1 3 1020.3 1020.3 0.0
30/10:00am 7.7 5.8 4.7 81 1.3 NNW 4 6 2 3 1020.7 1020.7 0.0
30/09:30am 5.0 3.8 4.7 98 0.1 CALM 0 4 0 2 1021.1 1021.1 0.0
30/09:00am 3.4 1.9 3.1 98 0.1 CALM 0 0 0 0 1021.5 1021.5 0.0
30/08:32am 2.1 0.4 1.8 98 0.1 CALM 0 0 0 0 1021.5 1021.5 0.0
30/08:30am 1.9 0.2 1.6 98 0.1 CALM 0 0 0 0 1021.5 1021.5 0.0
30/08:22am 1.0 -0.9 0.7 98 0.1 CALM 0 0 0 0 1021.4 1021.4 0.0
30/08:00am -0.4 -2.5 -0.7 98 0.1 CALM 0 0 0 0 1021.5 1021.5 0.0
30/07:30am -1.2 -3.4 -1.5 98 0.0 CALM 0 0 0 0 1021.5 1021.5 0.0
30/07:00am -1.2 -3.4 -1.5 98 0.0 CALM 0 0 0 0 1021.5 1021.5 0.0
30/06:30am -1.0 -3.2 -1.3 98 0.1 CALM 0 0 0 0 1021.4 1021.4 0.0
30/06:00am -1.0 -3.2 -1.3 98 0.1 CALM 0 0 0 0 1021.6 1021.6 0.0
30/05:30am -0.1 -2.1 -0.4 98 0.1 CALM 0 0 0 0 1021.7 1021.7 0.0
30/05:00am -0.3 -2.4 -0.6 98 0.1 CALM 0 0 0 0 1021.7 1021.7 0.0
30/04:30am 0.1 -1.9 -0.2 98 0.1 CALM 0 0 0 0 1021.9 1021.9 0.0
30/04:10am -0.2 -2.3 -0.5 98 0.1 CALM 0 0 0 0 1022.0 1022.0 0.0
30/04:02am 0.1 -1.9 -0.2 98 0.1 CALM 0 0 0 0 1022.2 1022.2 0.0
30/04:00am 0.1 -1.9 -0.2 98 0.1 CALM 0 0 0 0 1022.2 1022.2 0.0
30/03:30am 0.5 -2.6 0.2 98 0.1 WSW 6 7 3 4 1022.4 1022.4 0.0
30/03:00am 1.0 -0.9 0.7 98 0.1 CALM 0 0 0 0 1022.9 1022.9 0.0
30/02:31am 0.7 -1.2 0.4 98 0.1 CALM 0 0 0 0 1023.2 1023.2 0.0
30/02:30am 0.8 -1.1 0.5 98 0.1 CALM 0 0 0 0 1023.2 1023.2 0.0
30/02:28am 0.8 -1.1 0.5 98 0.1 CALM 0 0 0 0 1023.2 1023.2 0.0
30/02:03am 1.3 -0.5 1.0 98 0.1 CALM 0 0 0 0 1023.5 1023.5 0.0
30/02:00am 1.3 -0.5 1.0 98 0.1 CALM 0 0 0 0 1023.6 1023.6 0.0
30/01:58am 1.4 -0.4 1.1 98 0.1 CALM 0 0 0 0 1023.6 1023.6 0.0
30/01:44am 1.2 -0.6 0.9 98 0.1 CALM 0 0 0 0 1023.8 1023.8 0.0
30/01:30am 1.5 -0.3 1.2 98 0.1 CALM 0 0 0 0 1023.8 1023.8 0.0
30/01:01am 2.1 0.4 1.8 98 0.1 CALM 0 0 0 0 1024.0 1024.0 0.0
30/01:00am 2.1 0.4 1.8 98 0.1 CALM 0 0 0 0 1024.0 1024.0 0.0
30/12:36am 2.6 1.0 2.3 98 0.1 CALM 0 0 0 0 1024.2 1024.2 0.0
30/12:30am 2.5 0.9 2.2 98 0.1 CALM 0 0 0 0 1024.2 1024.2 0.0
30/12:20am 2.5 0.9 2.2 98 0.1 CALM 0 0 0 0 1024.4 1024.4 0.0
30/12:00am 2.2 0.5 1.9 98 0.1 CALM 0 0 0 0 1024.6 1024.6 0.0
 
Date/Time
EST
Temp
°C
App
Temp
°C
Dew
Point
°C
Rel
Hum
%
Delta-T
°C
Wind Press
QNH
hPa
Press
MSL
hPa
Rain since
9am
mm
Dir  Spd
km/h
Gust
km/h
Spd
kts
Gust
kts
29/11:31pm 2.9 1.3 2.6 98 0.1 CALM 0 0 0 0 1025.0 1025.0 0.0
29/11:30pm 2.8 1.2 2.5 98 0.1 CALM 0 0 0 0 1025.0 1025.0 0.0
29/11:00pm 3.7 2.3 3.4 98 0.1 CALM 0 0 0 0 1025.3 1025.3 0.0
29/10:52pm 3.6 2.2 3.3 98 0.1 CALM 0 0 0 0 1025.4 1025.4 0.0
29/10:30pm 4.3 3.0 4.0 98 0.1 CALM 0 0 0 0 1025.4 1025.4 0.0
29/10:00pm 4.0 2.6 3.6 97 0.2 CALM 0 0 0 0 1025.5 1025.5 0.0
29/09:30pm 4.5 3.2 3.9 96 0.3 CALM 0 0 0 0 1025.7 1025.7 0.0
29/09:00pm 4.6 3.2 3.6 93 0.4 CALM 0 0 0 0 1025.7 1025.7 0.0
29/08:30pm 5.7 4.5 4.8 94 0.4 CALM 0 0 0 0 1025.8 1025.8 0.0
29/08:00pm 5.4 4.0 3.6 88 0.7 CALM 0 0 0 0 1025.8 1025.8 0.0
29/07:30pm 6.9 5.8 4.9 87 0.9 CALM 0 0 0 0 1025.8 1025.8 0.0
29/07:00pm 7.5 6.3 4.8 83 1.2 CALM 0 0 0 0 1025.8 1025.8 0.0
29/06:30pm 8.1 6.9 4.5 78 1.6 CALM 0 0 0 0 1025.7 1025.7 0.0
29/06:00pm 10.0 8.9 5.0 71 2.2 CALM 0 0 0 0 1025.6 1025.6 0.0
29/05:30pm 11.3 9.3 4.3 62 3.1 NNE 4 7 2 4 1025.3 1025.3 0.0
29/05:00pm 13.3 10.7 4.2 54 4.1 NE 7 7 4 4 1025.2 1025.2 0.0
29/04:30pm 15.1 12.5 4.2 48 5.0 NE 7 9 4 5 1025.2 1025.2 0.0
29/04:00pm 16.3 13.2 3.7 43 5.8 NE 9 11 5 6 1025.3 1025.3 0.0
29/03:30pm 16.7 13.4 2.7 39 6.4 NE 9 13 5 7 1025.4 1025.4 0.0
29/03:00pm 16.8 13.5 2.4 38 6.5 ENE 9 13 5 7 1025.3 1025.3 0.0
29/02:30pm 17.2 14.8 4.2 42 6.1 NE 6 11 3 6 1025.3 1025.3 0.0
29/02:00pm 16.8 14.9 3.1 40 6.2 ESE 2 6 1 3 1025.4 1025.4 0.0
29/01:30pm 15.5 12.7 3.3 44 5.6 E 7 9 4 5 1025.8 1025.8 0.0
29/01:00pm 15.4 12.9 3.5 45 5.4 E 6 9 3 5 1026.3 1026.3 0.0
29/12:30pm 14.5 12.0 3.6 48 5.0 ESE 6 9 3 5 1026.7 1026.8 0.0
29/12:05pm 13.6 11.1 3.7 51 4.5 ENE 6 9 3 5 1027.1 1027.2 0.0
29/12:00pm 13.5 11.0 3.6 51 4.4 NE 6 9 3 5 1027.2 1027.3 0.0
29/11:45am 13.4 11.2 3.5 51 4.4 NNW 4 9 2 5 1027.4 1027.5 0.0
29/11:30am 12.8 10.6 3.2 52 4.3 N 4 9 2 5 1027.7 1027.8 0.0
29/11:00am 10.8 8.2 3.1 59 3.3 NE 6 7 3 4 1028.1 1028.2 0.0
29/10:30am 9.4 7.0 4.4 71 2.2 ESE 6 7 3 4 1028.6 1028.7 0.0
29/10:00am 8.0 5.9 4.0 76 1.7 E 4 7 2 4 1029.0 1029.1 0.0
29/09:30am 6.9 4.4 3.7 80 1.4 NE 6 7 3 4 1029.1 1029.2 0.0
29/09:00am 5.0 2.4 3.2 88 0.7 NNE 6 7 3 4 1028.9 1029.0 0.0
29/08:30am 3.3 1.7 2.6 95 0.3 CALM 0 0 0 0 1028.8 1028.9 0.0
29/08:00am 1.7 -0.1 1.4 98 0.1 CALM 0 0 0 0 1028.7 1028.8 0.0
29/07:30am -0.6 -3.1 -0.9 98 0.1 NW 2 6 1 3 1028.4 1028.5 0.0
29/07:21am -0.6 -3.5 -0.9 98 0.1 NW 4 6 2 3 1028.3 1028.4 0.0
29/07:01am -0.9 -3.1 -1.2 98 0.1 CALM 0 0 0 0 1028.3 1028.4 0.0
29/07:00am -1.0 -3.2 -1.3 98 0.1 CALM 0 0 0 0 1028.3 1028.4 0.0
29/06:33am -0.5 -2.6 -0.8 98 0.1 CALM 0 0 0 0 1028.1 1028.2 0.0
29/06:30am -0.5 -2.6 -0.8 98 0.1 CALM 0 0 0 0 1028.0 1028.1 0.0
29/06:11am -0.4 -2.5 -0.7 98 0.1 CALM 0 0 0 0 1027.9 1028.0 0.0
29/06:00am -0.7 -3.2 -1.0 98 0.1 NNE 2 6 1 3 1027.9 1028.0 0.0
29/05:30am -0.5 -3.4 -0.8 98 0.1 NNE 4 6 2 3 1027.6 1027.7 0.0
29/05:29am -0.5 -3.4 -0.8 98 0.1 NNE 4 6 2 3 1027.6 1027.7 0.0
29/05:26am -0.5 -3.0 -0.8 98 0.1 ENE 2 6 1 3 1027.6 1027.7 0.0
29/05:21am -0.5 -2.6 -0.8 98 0.1 CALM 0 0 0 0 1027.4 1027.5 0.0
29/05:02am -0.2 -2.3 -0.5 98 0.1 CALM 0 0 0 0 1027.4 1027.5 0.0
29/05:00am -0.1 -2.1 -0.4 98 0.1 CALM 0 0 0 0 1027.4 1027.5 0.0
29/04:55am -0.1 -2.1 -0.4 98 0.1 CALM 0 0 0 0 1027.3 1027.4 0.0
29/04:34am -0.4 -2.5 -0.7 98 0.1 CALM 0 0 0 0 1027.3 1027.4 0.0
29/04:31am -0.3 -2.4 -0.6 98 0.1 CALM 0 0 0 0 1027.3 1027.4 0.0
29/04:30am -0.3 -2.4 -0.6 98 0.1 CALM 0 0 0 0 1027.3 1027.4 0.0
29/04:15am -0.4 -2.9 -0.7 98 0.1 S 2 7 1 4 1027.3 1027.4 0.0
29/04:00am -0.1 -2.1 -0.4 98 0.1 CALM 0 0 0 0 1027.1 1027.2 0.0
29/03:30am 0.2 -1.8 -0.1 98 0.1 CALM 0 0 0 0 1027.1 1027.2 0.0
29/03:00am 0.7 -1.6 0.4 98 0.1 ESE 2 6 1 3 1027.2 1027.3 0.0
29/02:30am 1.1 -0.8 0.8 98 0.1 CALM 0 0 0 0 1027.1 1027.2 0.0
29/02:19am 0.7 -1.2 0.4 98 0.1 CALM 0 0 0 0 1027.1 1027.2 0.0
29/02:00am 1.6 -0.6 1.3 98 0.1 N 2 6 1 3 1027.2 1027.3 0.0
29/01:58am 1.9 -0.2 1.6 98 0.1 N 2 6 1 3 1027.2 1027.3 0.0
29/01:30am 2.6 1.0 2.3 98 0.1 CALM 0 0 0 0 1027.2 1027.3 0.0
29/01:00am 2.2 0.5 1.9 98 0.1 CALM 0 0 0 0 1027.4 1027.5 0.0
29/12:30am 2.6 0.9 2.0 96 0.2 CALM 0 0 0 0 1027.6 1027.7 0.0
29/12:00am 2.7 1.0 2.0 95 0.3 CALM 0 0 0 0 1027.7 1027.8 0.0
 
Date/Time
EST
Temp
°C
App
Temp
°C
Dew
Point
°C
Rel
Hum
%
Delta-T
°C
Wind Press
QNH
hPa
Press
MSL
hPa
Rain since
9am
mm
Dir  Spd
km/h
Gust
km/h
Spd
kts
Gust
kts
28/11:30pm 3.5 1.8 2.0 90 0.6 CALM 0 0 0 0 1027.7 1027.8 0.0
28/11:00pm 3.7 0.9 2.1 89 0.6 NE 6 9 3 5 1027.7 1027.8 0.0
28/10:30pm 4.8 2.9 2.7 86 0.9 NE 2 7 1 4 1027.6 1027.7 0.0
28/10:00pm 5.1 3.4 1.6 78 1.4 CALM 0 0 0 0 1027.3 1027.4 0.0
28/09:30pm 5.6 3.5 1.9 77 1.5 WSW 2 6 1 3 1027.2 1027.3 0.0
28/09:00pm 7.3 3.6 2.4 71 2.0 SW 11 13 6 7 1027.1 1027.2 0.0
28/08:30pm 8.1 4.1 3.0 70 2.2 WSW 13 17 7 9 1027.0 1027.1 0.0
28/08:00pm 8.4 4.4 3.1 69 2.2 WSW 13 17 7 9 1026.7 1026.8 0.0
28/07:30pm 9.2 5.3 3.4 67 2.5 WSW 13 17 7 9 1026.6 1026.6 0.0
28/07:00pm 8.8 5.6 3.2 68 2.4 WSW 9 13 5 7 1026.2 1026.2 0.0
28/06:30pm 10.6 7.5 3.4 61 3.1 WSW 9 11 5 6 1025.7 1025.7 0.0
28/06:00pm 11.0 7.1 3.5 60 3.3 WSW 13 15 7 8 1025.4 1025.4 0.0
28/05:30pm 11.8 9.1 3.6 57 3.6 SW 7 11 4 6 1024.9 1024.9 0.0
28/05:00pm 12.7 9.6 3.6 54 4.0 SW 9 11 5 6 1024.4 1024.4 0.0
28/04:30pm 14.4 10.6 4.1 50 4.7 SSW 13 17 7 9 1024.2 1024.2 0.0
28/04:00pm 15.5 10.9 3.9 46 5.3 SSW 17 24 9 13 1023.9 1023.9 0.0
28/03:30pm 16.1 11.5 3.5 43 5.8 SSW 17 24 9 13 1023.6 1023.6 0.0
28/03:00pm 16.2 11.0 3.6 43 5.8 SSW 20 28 11 15 1023.2 1023.2 0.0
28/02:30pm 16.6 11.7 4.0 43 5.9 S 19 24 10 13 1022.8 1022.8 0.0
28/02:00pm 16.5 11.9 3.6 42 5.9 S 17 24 9 13 1022.6 1022.6 0.0
28/01:30pm 16.4 11.4 3.8 43 5.8 SSW 19 28 10 15 1022.7 1022.7 0.0
28/01:00pm 15.6 10.5 3.1 43 5.6 SW 19 26 10 14 1022.9 1022.9 0.0
28/12:30pm 15.6 10.4 3.4 44 5.6 SW 20 28 11 15 1023.2 1023.2 0.0
28/12:00pm 15.4 10.2 3.5 45 5.4 SSW 20 28 11 15 1023.4 1023.4 0.0
28/11:30am 14.7 8.7 3.2 46 5.2 SSW 24 32 13 17 1023.5 1023.5 0.0
28/11:00am 14.8 9.2 3.6 47 5.1 SSW 22 30 12 16 1023.8 1023.8 0.0
28/10:30am 14.1 10.2 3.6 49 4.8 SE 13 28 7 15 1024.1 1024.1 0.0
28/10:00am 12.2 10.3 4.7 60 3.4 E 4 9 2 5 1024.1 1024.1 0.0
28/09:30am 10.7 8.1 4.2 64 2.9 NE 7 11 4 6 1023.8 1023.8 0.0
28/09:00am 9.4 7.0 4.2 70 2.3 NE 6 9 3 5 1023.4 1023.4 0.2
28/08:30am 7.9 4.5 4.1 77 1.6 E 11 15 6 8 1023.2 1023.2 0.2
28/08:00am 6.5 3.8 3.5 81 1.3 ESE 7 11 4 6 1022.7 1022.7 0.2
28/07:30am 8.1 4.5 2.8 69 2.2 WSW 11 19 6 10 1022.3 1022.3 0.2
28/07:00am 6.9 3.5 1.6 69 2.1 SW 9 11 5 6 1021.9 1021.9 0.2
28/06:30am 7.5 4.1 2.0 68 2.3 SW 9 13 5 7 1021.4 1021.4 0.2
28/06:00am 5.6 2.7 1.3 74 1.7 SW 6 11 3 6 1020.8 1020.8 0.2
28/05:30am 7.1 3.7 1.6 68 2.2 SW 9 11 5 6 1020.4 1020.4 0.2
28/05:00am 7.8 4.0 1.9 66 2.4 SW 11 17 6 9 1019.9 1019.9 0.2
28/04:30am 7.9 3.4 2.2 67 2.4 WSW 15 19 8 10 1019.5 1019.5 0.2
28/04:00am 7.6 3.1 1.9 67 2.3 WSW 15 20 8 11 1019.3 1019.3 0.2
28/03:30am 7.1 2.6 2.4 72 1.9 W 15 17 8 9 1019.0 1019.0 0.2
28/03:00am 8.9 4.4 2.3 63 2.8 WSW 15 20 8 11 1018.9 1018.9 0.2
28/02:30am 7.5 3.7 2.0 68 2.3 WSW 11 17 6 9 1018.8 1018.8 0.2
28/02:00am 7.6 4.5 1.5 65 2.5 W 7 11 4 6 1018.5 1018.5 0.2
28/01:30am 7.9 4.5 1.7 65 2.5 SW 9 13 5 7 1018.5 1018.5 0.2
28/01:00am 7.2 3.8 1.9 69 2.2 WSW 9 13 5 7 1018.4 1018.4 0.2
28/12:30am 7.3 4.0 2.4 71 2.0 WSW 9 13 5 7 1018.3 1018.3 0.2
28/12:00am 7.1 3.3 3.7 79 1.4 W 13 17 7 9 1018.2 1018.2 0.2
 
Date/Time
EST
Temp
°C
App
Temp
°C
Dew
Point
°C
Rel
Hum
%
Delta-T
°C
Wind Press
QNH
hPa
Press
MSL
hPa
Rain since
9am
mm
Dir  Spd
km/h
Gust
km/h
Spd
kts
Gust
kts
27/11:30pm 7.7 4.0 4.5 80 1.4 WSW 13 17 7 9 1018.2 1018.2 0.2
27/11:00pm 7.8 5.6 6.1 89 0.8 W 7 9 4 5 1018.3 1018.3 0.2
27/10:30pm 8.2 6.9 5.8 85 1.1 NE 2 7 1 4 1018.0 1018.0 0.2
27/10:00pm 8.8 7.1 5.7 81 1.4 E 4 6 2 3 1017.6 1017.6 0.2
27/09:30pm 8.8 7.5 6.1 83 1.2 ESE 2 6 1 3 1017.2 1017.2 0.2
27/09:00pm 9.1 8.2 6.0 81 1.4 CALM 0 0 0 0 1017.0 1017.0 0.2
27/08:30pm 9.5 8.4 5.3 75 1.9 CALM 0 0 0 0 1016.9 1016.9 0.2
27/08:00pm 9.6 7.3 5.0 73 2.1 SSE 6 7 3 4 1016.9 1016.9 0.2
27/07:30pm 10.6 7.4 2.9 59 3.3 WSW 9 17 5 9 1016.6 1016.6 0.2
27/07:00pm 10.4 6.9 3.4 62 3.1 WSW 11 17 6 9 1016.5 1016.5 0.2
27/06:30pm 10.0 7.1 4.4 68 2.5 W 9 13 5 7 1016.2 1016.2 0.2
27/06:00pm 10.4 7.0 4.1 65 2.8 WSW 11 17 6 9 1015.8 1015.8 0.2
27/05:30pm 10.8 7.3 3.4 60 3.2 WSW 11 17 6 9 1015.5 1015.5 0.2
27/05:00pm 11.2 6.1 3.0 57 3.6 WSW 19 26 10 14 1015.2 1015.2 0.2

Latest Capital City Observations: Canberra | Sydney | Melbourne | Brisbane | Adelaide | Perth | Hobart | Darwin

Other Formats:

Comma delimited format used in spreadsheet applications
http://www.bom.gov.au/fwo/IDN60901/IDN60901.95753.axf

JavaScript Object Notation format (JSON) in row-major order
http://www.bom.gov.au/fwo/IDN60901/IDN60901.95753.json